Aeroporto :
LOGIN :

Iscrizione | Disclaimer

   EN    FR    IT 

 










Sommario :    VFR   VFR Marginale   IFR   IFR Intensivo   IFR Molto Intensivo
Visibilità : 
Base nubi : 
>= 8 km
>= 3000ft
5 / 8 km
1000 / 3000 ft
1500m / 5 km
500 / 1000 ft
800 / 1500m
200 / 500 ft
< 800m
< 200 ft
Simboli :   Temporali  Nebbia  Neve Forte  Precipitazioni Forti  Vento > 20 kt
SIGMETs :   Varie  Temporali  Ghiacco  Turbolenza  Onda orograficha  Ceneri Vulcaniche






- Altitudine del aeroporto : 220 ft
- Codice IATA : CWL


EGFF - Cardiff Rhoose

ULTIMO METAR :
  • 241450Z AUTO 27023G35KT 9999 FEW004 BKN008 BKN012 10/10 Q1005 RERA

METARs OBSOLETI :
  • 241420Z AUTO 26022G36KT 9999 -RA BKN003 OVC008 10/10 Q1005 RERA
  • 241350Z AUTO 26020G31KT 8000 -RA BKN003 OVC011 10/10 Q1006
  • 241320Z AUTO 26022G33KT 9999 OVC005 11/10 Q1006 REDZ
  • 241250Z 26019G31KT 6000 DZ BKN006 BKN012 11/10 Q1006

TAF AMD TAF EGFF
Valido dal 24 a 13 ore il 25 a 12 ore UTC


241352Z 2413/2512 25020G30KT 4000 RA BKN004
BECMG 2413/2416 28015G25KT 9999 NSW FEW030
PROB40
TEMPO 2413/2416 25025G40KT
PROB30
TEMPO 2420/2505 7000 SHRA BKN014
TEMPO 2505/2512 7000 SHRA
PROB30
TEMPO 2505/2512 26020G35KT 4000 +SHRAGS BKN010 BKN016CB
ATIS : +44 1446 729 319



MetMap, La meteo Aeronautica in un colpo d'occhio ! - Copyright ORBIFLY Dicembre 2007 - Disclaimer

ORBIFLY MET'MAP TEAM :

Programmazione e sviluppo : Alexandra Zaïnal
Concezione : Baudouin d'Aumeries
Aiuto per la programmazione : Marc-Olivier Méhu
Supporto tecnico e logistico : Manuel Goepfert
Aiuto per la traduzione : Arnaldo La Scala

Contatto : metmap@orbifly.com




FONTI E CREDITI :

   NOAA